LVCTT SADF-SULS
Flight info
| Callsign | LVCTT |
|---|---|
| Flight time | N/A |
| Altitude | 21000 |
| Route | DORVO A305 CRR |
| Aircraft | TBM8/L-SDFGRWY/S |
Departure
| Time | 2026-05-07 14:21 |
|---|---|
| Airport | San Fernando Airport (SADF) |
Arrival
| Time | N/A |
|---|---|
| Airport | Capitan Corbeta CA Curbelo International Airport (SULS) |
| Time | Latitude | Longitude | Altitude | Speed | Heading |
|---|---|---|---|---|---|
| 2026-05-07 14:03 | -34.45656 | -58.58664 | 22 ft | 0 kts | 333° |
| 2026-05-07 14:16 | -34.45602 | -58.58613 | 22 ft | 22 kts | 68° |
| 2026-05-07 14:16 | -34.45529 | -58.58436 | 22 ft | 23 kts | 60° |
| 2026-05-07 14:16 | -34.45457 | -58.58270 | 23 ft | 21 kts | 63° |
| 2026-05-07 14:16 | -34.45394 | -58.58124 | 22 ft | 18 kts | 63° |
| 2026-05-07 14:17 | -34.45340 | -58.57998 | 23 ft | 15 kts | 59° |
| 2026-05-07 14:17 | -34.45264 | -58.58017 | 22 ft | 10 kts | 332° |
| 2026-05-07 14:17 | -34.45213 | -58.58054 | 23 ft | 8 kts | 329° |
| 2026-05-07 14:17 | -34.45141 | -58.58106 | 22 ft | 18 kts | 326° |
| 2026-05-07 14:18 | -34.45007 | -58.58200 | 22 ft | 24 kts | 327° |
| 2026-05-07 14:18 | -34.44906 | -58.58274 | 22 ft | 0 kts | 327° |
| 2026-05-07 14:19 | -34.44884 | -58.58294 | 22 ft | 0 kts | 319° |
| 2026-05-07 14:19 | -34.44881 | -58.58298 | 22 ft | 4 kts | 317° |
| 2026-05-07 14:19 | -34.44851 | -58.58331 | 23 ft | 0 kts | 317° |
| 2026-05-07 14:20 | -34.44845 | -58.58347 | 22 ft | 3 kts | 234° |
| 2026-05-07 14:20 | -34.44868 | -58.58396 | 22 ft | 0 kts | 224° |
| 2026-05-07 14:20 | -34.44924 | -58.58461 | 24 ft | 22 kts | 221° |
| 2026-05-07 14:20 | -34.44937 | -58.58475 | 22 ft | 0 kts | 224° |
| 2026-05-07 14:21 | -34.44960 | -58.58504 | 23 ft | 24 kts | 230° |
| 2026-05-07 14:21 | -34.45229 | -58.58819 | 24 ft | 82 kts | 225° |
| 2026-05-07 14:21 | -34.45713 | -58.59383 | 216 ft | 104 kts | 234° |
| 2026-05-07 14:21 | -34.46193 | -58.60025 | 728 ft | 105 kts | 230° |
| 2026-05-07 14:22 | -34.46660 | -58.60741 | 1136 ft | 113 kts | 229° |
| 2026-05-07 14:22 | -34.47365 | -58.61098 | 1641 ft | 119 kts | 175° |
| 2026-05-07 14:22 | -34.48047 | -58.60485 | 2238 ft | 129 kts | 136° |
| 2026-05-07 14:22 | -34.48410 | -58.59478 | 2845 ft | 130 kts | 119° |
| 2026-05-07 14:23 | -34.48447 | -58.58386 | 3415 ft | 138 kts | 73° |
| 2026-05-07 14:23 | -34.47997 | -58.57406 | 3999 ft | 129 kts | 69° |
| 2026-05-07 14:23 | -34.47570 | -58.56397 | 4372 ft | 139 kts | 69° |
| 2026-05-07 14:23 | -34.47121 | -58.55312 | 4751 ft | 149 kts | 69° |
| 2026-05-07 14:24 | -34.46649 | -58.54151 | 5188 ft | 158 kts | 66° |
| 2026-05-07 14:24 | -34.46300 | -58.52859 | 5634 ft | 167 kts | 70° |
| 2026-05-07 14:24 | -34.46136 | -58.51466 | 6190 ft | 168 kts | 77° |
| 2026-05-07 14:24 | -34.46454 | -58.50078 | 6749 ft | 177 kts | 115° |
| 2026-05-07 14:25 | -34.46903 | -58.48710 | 7291 ft | 172 kts | 108° |
| 2026-05-07 14:25 | -34.47277 | -58.47349 | 7840 ft | 168 kts | 109° |
| 2026-05-07 14:25 | -34.47592 | -58.46010 | 8379 ft | 163 kts | 108° |
| 2026-05-07 14:25 | -34.47875 | -58.44700 | 8920 ft | 158 kts | 107° |
| 2026-05-07 14:26 | -34.48148 | -58.43441 | 9454 ft | 152 kts | 107° |
| 2026-05-07 14:26 | -34.48410 | -58.42230 | 9977 ft | 145 kts | 107° |
| 2026-05-07 14:26 | -34.48665 | -58.41094 | 10486 ft | 134 kts | 105° |
| 2026-05-07 14:26 | -34.48906 | -58.40052 | 10870 ft | 129 kts | 105° |
| 2026-05-07 14:27 | -34.49176 | -58.38974 | 11113 ft | 137 kts | 107° |
| 2026-05-07 14:27 | -34.49479 | -58.37844 | 11358 ft | 145 kts | 107° |
| 2026-05-07 14:27 | -34.49799 | -58.36647 | 11621 ft | 154 kts | 107° |
| 2026-05-07 14:27 | -34.50140 | -58.35367 | 11884 ft | 164 kts | 107° |
| 2026-05-07 14:28 | -34.50500 | -58.34005 | 12159 ft | 175 kts | 106° |
| 2026-05-07 14:28 | -34.50881 | -58.32554 | 12429 ft | 186 kts | 106° |
| 2026-05-07 14:28 | -34.51279 | -58.31033 | 12698 ft | 197 kts | 106° |
| 2026-05-07 14:28 | -34.51706 | -58.29403 | 12970 ft | 208 kts | 106° |
| 2026-05-07 14:29 | -34.52153 | -58.27692 | 13240 ft | 218 kts | 105° |
| 2026-05-07 14:29 | -34.52618 | -58.25910 | 13504 ft | 226 kts | 106° |
| 2026-05-07 14:29 | -34.53103 | -58.24058 | 13765 ft | 234 kts | 105° |
| 2026-05-07 14:29 | -34.53597 | -58.22155 | 14024 ft | 240 kts | 105° |
| 2026-05-07 14:30 | -34.54104 | -58.20208 | 14279 ft | 246 kts | 105° |
| 2026-05-07 14:30 | -34.54626 | -58.18202 | 14533 ft | 250 kts | 105° |
| 2026-05-07 14:30 | -34.55154 | -58.16171 | 14783 ft | 254 kts | 104° |
| 2026-05-07 14:30 | -34.55687 | -58.14115 | 15038 ft | 257 kts | 104° |
| 2026-05-07 14:31 | -34.56214 | -58.12083 | 15402 ft | 254 kts | 103° |
| 2026-05-07 14:31 | -34.56734 | -58.10046 | 15771 ft | 252 kts | 103° |
| 2026-05-07 14:31 | -34.57253 | -58.08018 | 16136 ft | 251 kts | 102° |
| 2026-05-07 14:31 | -34.57774 | -58.06002 | 16501 ft | 249 kts | 102° |
| 2026-05-07 14:32 | -34.58293 | -58.03989 | 16867 ft | 249 kts | 101° |
| 2026-05-07 14:32 | -34.58795 | -58.02048 | 17221 ft | 248 kts | 101° |
| 2026-05-07 14:32 | -34.59307 | -58.00059 | 17587 ft | 246 kts | 101° |
| 2026-05-07 14:32 | -34.59814 | -57.98077 | 17952 ft | 245 kts | 100° |
| 2026-05-07 14:33 | -34.60323 | -57.96104 | 18319 ft | 244 kts | 100° |
| 2026-05-07 14:33 | -34.60828 | -57.94138 | 18685 ft | 243 kts | 100° |
| 2026-05-07 14:33 | -34.61328 | -57.92182 | 19051 ft | 242 kts | 100° |
| 2026-05-07 14:33 | -34.61824 | -57.90241 | 19415 ft | 240 kts | 99° |
| 2026-05-07 14:34 | -34.62319 | -57.88310 | 19780 ft | 238 kts | 99° |
| 2026-05-07 14:34 | -34.62820 | -57.86347 | 19934 ft | 249 kts | 100° |
| 2026-05-07 14:34 | -34.63345 | -57.84319 | 20063 ft | 260 kts | 101° |
| 2026-05-07 14:34 | -34.63895 | -57.82194 | 20198 ft | 268 kts | 101° |
| 2026-05-07 14:35 | -34.64459 | -57.79995 | 20334 ft | 276 kts | 101° |
| 2026-05-07 14:35 | -34.65038 | -57.77739 | 20466 ft | 283 kts | 101° |
| 2026-05-07 14:35 | -34.65630 | -57.75427 | 20597 ft | 290 kts | 102° |
| 2026-05-07 14:35 | -34.66239 | -57.73056 | 20661 ft | 298 kts | 102° |
| 2026-05-07 14:36 | -34.66870 | -57.70605 | 20666 ft | 307 kts | 102° |
| 2026-05-07 14:36 | -34.67513 | -57.68096 | 20667 ft | 314 kts | 102° |
| 2026-05-07 14:36 | -34.68164 | -57.65537 | 20669 ft | 320 kts | 102° |
| 2026-05-07 14:36 | -34.68819 | -57.62973 | 20664 ft | 324 kts | 103° |
| 2026-05-07 14:37 | -34.69489 | -57.60341 | 20661 ft | 327 kts | 102° |
| 2026-05-07 14:37 | -34.70842 | -57.55006 | 20656 ft | 332 kts | 102° |
| 2026-05-07 14:37 | -34.71514 | -57.52321 | 20652 ft | 331 kts | 101° |
| 2026-05-07 14:38 | -34.71857 | -57.49591 | 20652 ft | 325 kts | 88° |
| 2026-05-07 14:38 | -34.72059 | -57.46852 | 20655 ft | 327 kts | 89° |
| 2026-05-07 14:38 | -34.72314 | -57.44099 | 20657 ft | 328 kts | 90° |
| 2026-05-07 14:38 | -34.72558 | -57.41343 | 20656 ft | 328 kts | 89° |
| 2026-05-07 14:39 | -34.72782 | -57.38576 | 20656 ft | 329 kts | 89° |
| 2026-05-07 14:39 | -34.73006 | -57.35803 | 20657 ft | 330 kts | 89° |
| 2026-05-07 14:39 | -34.73244 | -57.33035 | 20652 ft | 329 kts | 90° |
| 2026-05-07 14:39 | -34.73475 | -57.30282 | 20652 ft | 327 kts | 89° |
| 2026-05-07 14:40 | -34.73699 | -57.27526 | 20653 ft | 326 kts | 89° |
| 2026-05-07 14:40 | -34.73923 | -57.24781 | 20654 ft | 326 kts | 89° |
| 2026-05-07 14:40 | -34.74147 | -57.22076 | 20654 ft | 325 kts | 89° |
| 2026-05-07 14:40 | -34.74372 | -57.19344 | 20653 ft | 325 kts | 89° |
| 2026-05-07 14:41 | -34.74595 | -57.16611 | 20654 ft | 325 kts | 89° |
| 2026-05-07 14:41 | -34.74819 | -57.13881 | 20655 ft | 324 kts | 89° |
| 2026-05-07 14:41 | -34.75041 | -57.11152 | 20652 ft | 324 kts | 89° |
| 2026-05-07 14:41 | -34.75263 | -57.08424 | 20655 ft | 324 kts | 89° |
| 2026-05-07 14:42 | -34.75485 | -57.05692 | 20656 ft | 324 kts | 89° |
| 2026-05-07 14:42 | -34.75705 | -57.02968 | 20657 ft | 324 kts | 89° |
| 2026-05-07 14:42 | -34.75924 | -57.00236 | 20657 ft | 324 kts | 89° |
| 2026-05-07 14:42 | -34.76142 | -56.97544 | 20654 ft | 324 kts | 89° |
| 2026-05-07 14:43 | -34.76361 | -56.94819 | 20655 ft | 324 kts | 89° |
| 2026-05-07 14:43 | -34.76576 | -56.92095 | 20655 ft | 324 kts | 89° |
| 2026-05-07 14:43 | -34.76793 | -56.89365 | 20654 ft | 324 kts | 89° |
| 2026-05-07 14:43 | -34.77011 | -56.86643 | 20649 ft | 323 kts | 89° |
| 2026-05-07 14:44 | -34.77227 | -56.83917 | 20644 ft | 324 kts | 89° |
| 2026-05-07 14:44 | -34.77442 | -56.81193 | 20647 ft | 324 kts | 89° |
| 2026-05-07 14:44 | -34.77656 | -56.78468 | 20646 ft | 323 kts | 89° |
| 2026-05-07 14:44 | -34.77870 | -56.75745 | 20646 ft | 323 kts | 89° |
| 2026-05-07 14:45 | -34.78084 | -56.73018 | 20647 ft | 323 kts | 89° |
| 2026-05-07 14:45 | -34.78296 | -56.70296 | 20647 ft | 323 kts | 89° |
| 2026-05-07 14:45 | -34.78504 | -56.67605 | 20647 ft | 323 kts | 89° |
| 2026-05-07 14:45 | -34.78714 | -56.64852 | 20646 ft | 323 kts | 89° |
| 2026-05-07 14:46 | -34.78920 | -56.62133 | 20647 ft | 323 kts | 89° |
| 2026-05-07 14:46 | -34.79126 | -56.59450 | 20643 ft | 323 kts | 89° |
| 2026-05-07 14:46 | -34.79336 | -56.56721 | 20646 ft | 323 kts | 89° |
| 2026-05-07 14:46 | -34.79541 | -56.53999 | 20647 ft | 323 kts | 89° |
| 2026-05-07 14:47 | -34.79746 | -56.51279 | 20647 ft | 323 kts | 89° |
| 2026-05-07 14:47 | -34.79951 | -56.48553 | 20643 ft | 323 kts | 89° |
| 2026-05-07 14:47 | -34.80156 | -56.45832 | 20647 ft | 323 kts | 89° |
| 2026-05-07 14:47 | -34.80360 | -56.43112 | 20646 ft | 323 kts | 89° |
| 2026-05-07 14:48 | -34.80564 | -56.40385 | 20651 ft | 323 kts | 89° |
| 2026-05-07 14:48 | -34.80767 | -56.37662 | 20654 ft | 323 kts | 89° |
| 2026-05-07 14:48 | -34.80971 | -56.34934 | 20651 ft | 324 kts | 89° |
| 2026-05-07 14:48 | -34.81105 | -56.33129 | 20654 ft | 324 kts | 89° |
| 2026-05-07 14:49 | -34.81372 | -56.29511 | 20657 ft | 324 kts | 89° |
| 2026-05-07 14:49 | -34.81570 | -56.26785 | 20656 ft | 324 kts | 89° |
| 2026-05-07 14:49 | -34.81772 | -56.24057 | 20652 ft | 324 kts | 89° |
| 2026-05-07 14:49 | -34.81972 | -56.21324 | 20653 ft | 324 kts | 89° |
| 2026-05-07 14:50 | -34.82106 | -56.19487 | 20653 ft | 323 kts | 89° |
| 2026-05-07 14:50 | -34.82303 | -56.16793 | 20647 ft | 324 kts | 89° |
| 2026-05-07 14:50 | -34.82499 | -56.14067 | 20648 ft | 323 kts | 87° |
| 2026-05-07 14:50 | -34.82625 | -56.11338 | 20607 ft | 324 kts | 85° |
| 2026-05-07 14:51 | -34.82803 | -56.08561 | 20269 ft | 332 kts | 89° |
| 2026-05-07 14:51 | -34.83069 | -56.05756 | 19922 ft | 334 kts | 89° |
| 2026-05-07 14:51 | -34.83289 | -56.02946 | 19570 ft | 333 kts | 88° |
| 2026-05-07 14:51 | -34.83456 | -56.00141 | 19220 ft | 332 kts | 86° |
| 2026-05-07 14:52 | -34.83606 | -55.97344 | 18871 ft | 331 kts | 87° |
| 2026-05-07 14:52 | -34.83777 | -55.94544 | 18522 ft | 333 kts | 88° |
| 2026-05-07 14:52 | -34.83958 | -55.91744 | 18171 ft | 331 kts | 88° |
| 2026-05-07 14:52 | -34.84125 | -55.88966 | 17819 ft | 327 kts | 88° |
| 2026-05-07 14:53 | -34.84282 | -55.86218 | 17467 ft | 325 kts | 88° |
| 2026-05-07 14:53 | -34.84450 | -55.83483 | 17115 ft | 322 kts | 88° |
| 2026-05-07 14:53 | -34.84601 | -55.80777 | 16763 ft | 321 kts | 88° |
| 2026-05-07 14:53 | -34.84758 | -55.78072 | 16412 ft | 318 kts | 88° |
| 2026-05-07 14:54 | -34.84921 | -55.75401 | 16059 ft | 316 kts | 88° |
| 2026-05-07 14:54 | -34.85079 | -55.72739 | 15706 ft | 314 kts | 88° |
| 2026-05-07 14:54 | -34.85021 | -55.70133 | 15331 ft | 302 kts | 71° |
| 2026-05-07 14:54 | -34.84460 | -55.67713 | 14966 ft | 294 kts | 63° |
| 2026-05-07 14:55 | -34.83772 | -55.65385 | 14609 ft | 290 kts | 60° |
| 2026-05-07 14:55 | -34.83029 | -55.63156 | 14264 ft | 287 kts | 59° |
| 2026-05-07 14:55 | -34.82268 | -55.60926 | 13913 ft | 284 kts | 59° |
| 2026-05-07 14:55 | -34.81502 | -55.58715 | 13560 ft | 282 kts | 59° |
| 2026-05-07 14:56 | -34.80737 | -55.56523 | 13209 ft | 280 kts | 59° |
| 2026-05-07 14:56 | -34.79978 | -55.54346 | 12856 ft | 278 kts | 59° |
| 2026-05-07 14:56 | -34.79221 | -55.52186 | 12504 ft | 277 kts | 59° |
| 2026-05-07 14:56 | -34.78458 | -55.50045 | 12152 ft | 275 kts | 59° |
| 2026-05-07 14:57 | -34.77700 | -55.47920 | 11800 ft | 273 kts | 59° |
| 2026-05-07 14:57 | -34.76940 | -55.45811 | 11448 ft | 272 kts | 59° |
| 2026-05-07 14:57 | -34.76196 | -55.43694 | 11097 ft | 274 kts | 65° |
| 2026-05-07 14:57 | -34.76053 | -55.41350 | 10757 ft | 286 kts | 96° |
| 2026-05-07 14:58 | -34.76588 | -55.39009 | 10414 ft | 287 kts | 107° |
| 2026-05-07 14:58 | -34.77225 | -55.36752 | 10073 ft | 286 kts | 108° |
| 2026-05-07 14:58 | -34.77877 | -55.34472 | 9724 ft | 285 kts | 107° |
| 2026-05-07 14:58 | -34.78529 | -55.32202 | 9376 ft | 284 kts | 108° |
| 2026-05-07 14:59 | -34.79174 | -55.29946 | 9028 ft | 282 kts | 108° |
| 2026-05-07 14:59 | -34.79808 | -55.27700 | 8672 ft | 280 kts | 108° |
| 2026-05-07 14:59 | -34.80435 | -55.25460 | 8331 ft | 278 kts | 108° |
| 2026-05-07 14:59 | -34.81347 | -55.23393 | 7982 ft | 277 kts | 127° |
| 2026-05-07 15:00 | -34.82513 | -55.21525 | 7633 ft | 276 kts | 129° |
| 2026-05-07 15:00 | -34.83692 | -55.19686 | 7285 ft | 276 kts | 129° |
| 2026-05-07 15:00 | -34.84901 | -55.17792 | 6936 ft | 289 kts | 129° |
| 2026-05-07 15:00 | -34.86158 | -55.15842 | 6593 ft | 296 kts | 129° |
| 2026-05-07 15:01 | -34.87441 | -55.13869 | 6245 ft | 298 kts | 130° |
| 2026-05-07 15:01 | -34.88734 | -55.11889 | 5896 ft | 298 kts | 130° |
| 2026-05-07 15:01 | -34.89958 | -55.09901 | 5537 ft | 296 kts | 121° |
| 2026-05-07 15:01 | -34.90622 | -55.07557 | 5145 ft | 292 kts | 95° |
| 2026-05-07 15:02 | -34.90635 | -55.05106 | 4782 ft | 287 kts | 83° |
| 2026-05-07 15:02 | -34.90476 | -55.02697 | 4434 ft | 284 kts | 82° |
| 2026-05-07 15:02 | -34.90372 | -55.00314 | 4145 ft | 278 kts | 84° |
| 2026-05-07 15:02 | -34.90319 | -54.97985 | 3943 ft | 273 kts | 83° |
| 2026-05-07 15:03 | -34.90243 | -54.95693 | 3739 ft | 269 kts | 83° |
| 2026-05-07 15:03 | -34.90158 | -54.93433 | 3536 ft | 266 kts | 83° |
| 2026-05-07 15:03 | -34.89909 | -54.91238 | 3311 ft | 258 kts | 66° |
| 2026-05-07 15:03 | -34.89081 | -54.89550 | 3060 ft | 207 kts | 41° |
| 2026-05-07 15:04 | -34.88095 | -54.88575 | 2973 ft | 161 kts | 24° |
| 2026-05-07 15:04 | -34.87164 | -54.88068 | 2973 ft | 135 kts | 11° |
| 2026-05-07 15:04 | -34.86297 | -54.87850 | 2976 ft | 121 kts | 360° |
| 2026-05-07 15:04 | -34.85485 | -54.87840 | 2976 ft | 114 kts | 350° |
| 2026-05-07 15:05 | -34.84722 | -54.88000 | 2981 ft | 111 kts | 341° |
| 2026-05-07 15:05 | -34.83891 | -54.88350 | 2994 ft | 140 kts | 338° |
| 2026-05-07 15:05 | -34.82874 | -54.88727 | 3016 ft | 162 kts | 341° |
| 2026-05-07 15:05 | -34.81829 | -54.89303 | 2904 ft | 166 kts | 321° |
| 2026-05-07 15:06 | -34.81146 | -54.90398 | 2750 ft | 153 kts | 299° |
| 2026-05-07 15:06 | -34.80939 | -54.91578 | 2571 ft | 138 kts | 277° |
| 2026-05-07 15:06 | -34.81102 | -54.92657 | 2383 ft | 123 kts | 258° |
| 2026-05-07 15:06 | -34.81374 | -54.93593 | 2216 ft | 122 kts | 257° |
| 2026-05-07 15:07 | -34.81653 | -54.94643 | 2004 ft | 123 kts | 259° |
| 2026-05-07 15:07 | -34.81877 | -54.95562 | 1734 ft | 107 kts | 258° |
| 2026-05-07 15:07 | -34.82114 | -54.96383 | 1697 ft | 102 kts | 253° |
| 2026-05-07 15:07 | -34.82351 | -54.97247 | 1690 ft | 120 kts | 256° |
| 2026-05-07 15:08 | -34.82611 | -54.98291 | 1697 ft | 136 kts | 256° |
| 2026-05-07 15:08 | -34.82897 | -54.99425 | 1676 ft | 143 kts | 256° |
| 2026-05-07 15:08 | -34.83200 | -55.00606 | 1511 ft | 149 kts | 255° |
| 2026-05-07 15:08 | -34.83508 | -55.01781 | 1319 ft | 146 kts | 254° |
| 2026-05-07 15:09 | -34.83817 | -55.02956 | 1125 ft | 142 kts | 254° |
| 2026-05-07 15:09 | -34.84072 | -55.03959 | 944 ft | 110 kts | 255° |
| 2026-05-07 15:09 | -34.84291 | -55.04773 | 796 ft | 94 kts | 256° |
| 2026-05-07 15:09 | -34.84523 | -55.05598 | 684 ft | 110 kts | 255° |
| 2026-05-07 15:10 | -34.84698 | -55.06285 | 578 ft | 110 kts | 256° |
| 2026-05-07 15:10 | -34.84874 | -55.06966 | 468 ft | 110 kts | 254° |
| 2026-05-07 15:10 | -34.85109 | -55.07857 | 328 ft | 109 kts | 255° |
| 2026-05-07 15:11 | -34.85311 | -55.08655 | 208 ft | 94 kts | 255° |
| 2026-05-07 15:11 | -34.85525 | -55.09457 | 112 ft | 99 kts | 254° |
| 2026-05-07 15:11 | -34.85715 | -55.10177 | 101 ft | 81 kts | 252° |
| 2026-05-07 15:11 | -34.85880 | -55.10787 | 108 ft | 74 kts | 252° |
| 2026-05-07 15:12 | -34.86126 | -55.11510 | 203 ft | 108 kts | 248° |
| 2026-05-07 15:12 | -34.86410 | -55.12423 | 466 ft | 122 kts | 252° |
| 2026-05-07 15:12 | -34.86714 | -55.13468 | 746 ft | 140 kts | 253° |
| 2026-05-07 15:12 | -34.87049 | -55.14646 | 1027 ft | 155 kts | 253° |
| 2026-05-07 15:13 | -34.87407 | -55.15909 | 1304 ft | 163 kts | 253° |
| 2026-05-07 15:13 | -34.87793 | -55.17269 | 1554 ft | 176 kts | 253° |
| 2026-05-07 15:13 | -34.88204 | -55.18715 | 1807 ft | 185 kts | 254° |
| 2026-05-07 15:13 | -34.88655 | -55.20205 | 2057 ft | 190 kts | 253° |
| 2026-05-07 15:14 | -34.89134 | -55.21716 | 2312 ft | 193 kts | 253° |
| 2026-05-07 15:14 | -34.89643 | -55.23234 | 2559 ft | 194 kts | 253° |
| 2026-05-07 15:14 | -34.90161 | -55.24761 | 2816 ft | 194 kts | 253° |
| 2026-05-07 15:14 | -34.90698 | -55.26289 | 3061 ft | 199 kts | 253° |
| 2026-05-07 15:15 | -34.91267 | -55.27881 | 3085 ft | 208 kts | 257° |
| 2026-05-07 15:15 | -34.91629 | -55.29571 | 3095 ft | 209 kts | 265° |
| 2026-05-07 15:15 | -34.91973 | -55.31315 | 3097 ft | 214 kts | 262° |
| 2026-05-07 15:15 | -34.92398 | -55.33063 | 3097 ft | 216 kts | 259° |
| 2026-05-07 15:16 | -34.92841 | -55.34820 | 3096 ft | 217 kts | 259° |
| 2026-05-07 15:16 | -34.93282 | -55.36609 | 3098 ft | 222 kts | 260° |
| 2026-05-07 15:16 | -34.93724 | -55.38404 | 3097 ft | 219 kts | 260° |
| 2026-05-07 15:16 | -34.94148 | -55.40160 | 3096 ft | 219 kts | 260° |
| 2026-05-07 15:17 | -34.94583 | -55.41929 | 3095 ft | 217 kts | 259° |
| 2026-05-07 15:17 | -34.95013 | -55.43700 | 3095 ft | 219 kts | 260° |
| 2026-05-07 15:17 | -34.95439 | -55.45479 | 3094 ft | 219 kts | 260° |
| 2026-05-07 15:17 | -34.95872 | -55.47257 | 3092 ft | 219 kts | 259° |
| 2026-05-07 15:18 | -34.96309 | -55.49044 | 3096 ft | 221 kts | 260° |
| 2026-05-07 15:18 | -34.96742 | -55.50843 | 3096 ft | 222 kts | 259° |
| 2026-05-07 15:18 | -34.97177 | -55.52651 | 3094 ft | 223 kts | 259° |
| 2026-05-07 15:18 | -34.97617 | -55.54462 | 3098 ft | 222 kts | 259° |
| 2026-05-07 15:19 | -34.98054 | -55.56267 | 3093 ft | 221 kts | 261° |
| 2026-05-07 15:19 | -34.98199 | -55.58104 | 3103 ft | 216 kts | 275° |
| 2026-05-07 15:19 | -34.98178 | -55.59935 | 3103 ft | 216 kts | 274° |
| 2026-05-07 15:19 | -34.98260 | -55.61773 | 3101 ft | 218 kts | 270° |
| 2026-05-07 15:20 | -34.98396 | -55.63630 | 3100 ft | 219 kts | 270° |
| 2026-05-07 15:20 | -34.98527 | -55.65483 | 3102 ft | 219 kts | 270° |
| 2026-05-07 15:20 | -34.98633 | -55.67310 | 3101 ft | 219 kts | 271° |
| 2026-05-07 15:20 | -34.98754 | -55.69165 | 3099 ft | 220 kts | 270° |
| 2026-05-07 15:21 | -34.98884 | -55.71025 | 3097 ft | 220 kts | 270° |
| 2026-05-07 15:21 | -34.98992 | -55.72888 | 3099 ft | 220 kts | 271° |
| 2026-05-07 15:21 | -34.99108 | -55.74750 | 3098 ft | 219 kts | 270° |
| 2026-05-07 15:21 | -34.99228 | -55.76605 | 3096 ft | 221 kts | 270° |
| 2026-05-07 15:22 | -34.99346 | -55.78470 | 3096 ft | 221 kts | 269° |
| 2026-05-07 15:22 | -34.99470 | -55.80338 | 3099 ft | 221 kts | 270° |
| 2026-05-07 15:22 | -34.99592 | -55.82203 | 3099 ft | 220 kts | 270° |
| 2026-05-07 15:22 | -34.99706 | -55.84062 | 3109 ft | 220 kts | 270° |
| 2026-05-07 15:23 | -34.99823 | -55.85926 | 3108 ft | 220 kts | 270° |
| 2026-05-07 15:23 | -34.99940 | -55.87779 | 3108 ft | 219 kts | 270° |
| 2026-05-07 15:23 | -35.00055 | -55.89630 | 3106 ft | 218 kts | 270° |
| 2026-05-07 15:23 | -35.00170 | -55.91485 | 3107 ft | 220 kts | 270° |
| 2026-05-07 15:24 | -35.00287 | -55.93338 | 3106 ft | 218 kts | 270° |
| 2026-05-07 15:24 | -35.00407 | -55.95194 | 3107 ft | 220 kts | 270° |
| 2026-05-07 15:24 | -35.00517 | -55.97024 | 3107 ft | 219 kts | 270° |
| 2026-05-07 15:24 | -35.00439 | -55.98867 | 2978 ft | 218 kts | 288° |
| 2026-05-07 15:25 | -34.99831 | -56.00505 | 2688 ft | 209 kts | 304° |
| 2026-05-07 15:25 | -34.98852 | -56.01807 | 2396 ft | 208 kts | 322° |
| 2026-05-07 15:25 | -34.97581 | -56.02633 | 2102 ft | 208 kts | 341° |
| 2026-05-07 15:25 | -34.96161 | -56.02912 | 1808 ft | 208 kts | 359° |
| 2026-05-07 15:26 | -34.94745 | -56.02897 | 1508 ft | 183 kts | 360° |
| 2026-05-07 15:26 | -34.93669 | -56.02917 | 1409 ft | 130 kts | 358° |
| 2026-05-07 15:26 | -34.92899 | -56.02947 | 1374 ft | 96 kts | 358° |
| 2026-05-07 15:26 | -34.92205 | -56.02993 | 1402 ft | 105 kts | 356° |
| 2026-05-07 15:27 | -34.91434 | -56.03001 | 1406 ft | 115 kts | 360° |
| 2026-05-07 15:27 | -34.90609 | -56.02998 | 1317 ft | 123 kts | 360° |
| 2026-05-07 15:27 | -34.89730 | -56.03000 | 1168 ft | 129 kts | 359° |
| 2026-05-07 15:27 | -34.88845 | -56.03002 | 999 ft | 124 kts | 360° |
| 2026-05-07 15:28 | -34.88005 | -56.03014 | 838 ft | 121 kts | 359° |
| 2026-05-07 15:28 | -34.87174 | -56.03029 | 688 ft | 118 kts | 359° |
| 2026-05-07 15:28 | -34.86357 | -56.03041 | 539 ft | 116 kts | 360° |
| 2026-05-07 15:28 | -34.85586 | -56.03043 | 393 ft | 105 kts | 0° |
| 2026-05-07 15:29 | -34.84943 | -56.03057 | 253 ft | 88 kts | 356° |
| 2026-05-07 15:29 | -34.84282 | -56.03082 | 143 ft | 99 kts | 12° |
| 2026-05-07 15:29 | -34.83644 | -56.03080 | 77 ft | 79 kts | 359° |
| 2026-05-07 15:29 | -34.83182 | -56.03090 | 77 ft | 57 kts | 358° |
| 2026-05-07 15:30 | -34.82828 | -56.03100 | 77 ft | 46 kts | 358° |
| 2026-05-07 15:30 | -34.82553 | -56.03091 | 77 ft | 22 kts | 24° |
| 2026-05-07 15:30 | -34.82523 | -56.02909 | 77 ft | 26 kts | 104° |
| 2026-05-07 15:30 | -34.82710 | -56.02862 | 77 ft | 33 kts | 179° |
| 2026-05-07 15:31 | -34.82967 | -56.02858 | 77 ft | 40 kts | 179° |
| 2026-05-07 15:31 | -34.83265 | -56.02855 | 77 ft | 45 kts | 180° |
| 2026-05-07 15:31 | -34.83593 | -56.02853 | 69 ft | 49 kts | 180° |
| 2026-05-07 15:31 | -34.83885 | -56.02841 | 77 ft | 15 kts | 159° |
| 2026-05-07 15:32 | -34.83977 | -56.02778 | 77 ft | 13 kts | 160° |
| 2026-05-07 15:32 | -34.83997 | -56.02722 | 77 ft | 8 kts | 80° |
| 2026-05-07 15:32 | -34.84019 | -56.02656 | 77 ft | 7 kts | 143° |
| 2026-05-07 15:32 | -34.84029 | -56.02649 | 77 ft | 0 kts | 149° |